sensor_id;sensor_type;location;lat;lon;timestamp;temperature;humidity
13049;DHT22;6591;51.446;5.404;2022-08-19T00:02:02;20.60;99.90
13049;DHT22;6591;51.446;5.404;2022-08-19T00:04:33;19.40;99.90
13049;DHT22;6591;51.446;5.404;2022-08-19T00:07:05;19.30;99.90
13049;DHT22;6591;51.446;5.404;2022-08-19T00:09:33;20.00;99.90
13049;DHT22;6591;51.446;5.404;2022-08-19T00:12:00;19.40;99.90
13049;DHT22;6591;51.446;5.404;2022-08-19T00:14:28;21.10;99.90
13049;DHT22;6591;51.446;5.404;2022-08-19T00:16:59;19.40;99.90
13049;DHT22;6591;51.446;5.404;2022-08-19T00:19:27;21.20;99.90
13049;DHT22;6591;51.446;5.404;2022-08-19T00:21:55;19.30;99.90
13049;DHT22;6591;51.446;5.404;2022-08-19T00:24:35;19.30;99.90
13049;DHT22;6591;51.446;5.404;2022-08-19T00:27:16;21.10;99.90
13049;DHT22;6591;51.446;5.404;2022-08-19T00:29:52;19.40;99.90
13049;DHT22;6591;51.446;5.404;2022-08-19T00:32:19;19.40;99.90
13049;DHT22;6591;51.446;5.404;2022-08-19T00:34:47;19.20;99.90
13049;DHT22;6591;51.446;5.404;2022-08-19T00:37:14;19.40;99.90
13049;DHT22;6591;51.446;5.404;2022-08-19T00:39:41;19.40;99.90
13049;DHT22;6591;51.446;5.404;2022-08-19T00:42:08;19.30;99.90
13049;DHT22;6591;51.446;5.404;2022-08-19T00:44:36;19.20;99.90
13049;DHT22;6591;51.446;5.404;2022-08-19T00:47:04;19.30;99.90
13049;DHT22;6591;51.446;5.404;2022-08-19T00:49:43;19.30;99.90
13049;DHT22;6591;51.446;5.404;2022-08-19T00:52:23;18.60;99.90
13049;DHT22;6591;51.446;5.404;2022-08-19T00:54:57;19.30;99.90
13049;DHT22;6591;51.446;5.404;2022-08-19T00:57:36;19.10;99.90
13049;DHT22;6591;51.446;5.404;2022-08-19T01:00:14;19.10;99.90
13049;DHT22;6591;51.446;5.404;2022-08-19T01:02:45;19.30;99.90
13049;DHT22;6591;51.446;5.404;2022-08-19T01:05:23;19.10;99.90
13049;DHT22;6591;51.446;5.404;2022-08-19T01:07:56;19.10;99.90
13049;DHT22;6591;51.446;5.404;2022-08-19T01:10:30;19.10;99.90
13049;DHT22;6591;51.446;5.404;2022-08-19T01:13:03;19.10;99.90
13049;DHT22;6591;51.446;5.404;2022-08-19T01:15:35;20.50;99.90
13049;DHT22;6591;51.446;5.404;2022-08-19T01:18:11;19.00;99.90
13049;DHT22;6591;51.446;5.404;2022-08-19T01:20:43;19.10;99.90
13049;DHT22;6591;51.446;5.404;2022-08-19T01:23:11;19.00;99.90
13049;DHT22;6591;51.446;5.404;2022-08-19T01:25:46;20.70;99.90
13049;DHT22;6591;51.446;5.404;2022-08-19T01:28:23;20.50;99.90
13049;DHT22;6591;51.446;5.404;2022-08-19T01:31:12;19.00;99.90
13049;DHT22;6591;51.446;5.404;2022-08-19T01:33:55;18.90;99.90
13049;DHT22;6591;51.446;5.404;2022-08-19T01:36:33;21.40;99.90
13049;DHT22;6591;51.446;5.404;2022-08-19T01:39:07;18.90;99.90
13049;DHT22;6591;51.446;5.404;2022-08-19T01:41:38;18.90;99.90
13049;DHT22;6591;51.446;5.404;2022-08-19T01:44:07;18.90;99.90
13049;DHT22;6591;51.446;5.404;2022-08-19T01:46:46;19.80;99.90
13049;DHT22;6591;51.446;5.404;2022-08-19T01:49:16;18.90;99.90
13049;DHT22;6591;51.446;5.404;2022-08-19T01:51:45;19.00;99.90
13049;DHT22;6591;51.446;5.404;2022-08-19T01:54:13;20.00;99.90
13049;DHT22;6591;51.446;5.404;2022-08-19T01:56:57;19.50;99.90
13049;DHT22;6591;51.446;5.404;2022-08-19T01:59:31;18.90;99.90
13049;DHT22;6591;51.446;5.404;2022-08-19T02:02:00;18.80;99.90
13049;DHT22;6591;51.446;5.404;2022-08-19T02:04:27;18.80;99.90
13049;DHT22;6591;51.446;5.404;2022-08-19T02:06:54;21.30;99.90
13049;DHT22;6591;51.446;5.404;2022-08-19T02:09:21;21.10;99.90
13049;DHT22;6591;51.446;5.404;2022-08-19T02:11:48;18.90;99.90
13049;DHT22;6591;51.446;5.404;2022-08-19T02:14:16;20.50;99.90
13049;DHT22;6591;51.446;5.404;2022-08-19T02:16:43;18.70;99.90
13049;DHT22;6591;51.446;5.404;2022-08-19T02:19:10;19.30;99.90
13049;DHT22;6591;51.446;5.404;2022-08-19T02:21:37;18.70;99.90
13049;DHT22;6591;51.446;5.404;2022-08-19T02:24:04;18.80;99.90
13049;DHT22;6591;51.446;5.404;2022-08-19T02:26:32;18.60;99.90
13049;DHT22;6591;51.446;5.404;2022-08-19T02:29:00;18.10;99.90
13049;DHT22;6591;51.446;5.404;2022-08-19T02:31:27;18.60;99.90
13049;DHT22;6591;51.446;5.404;2022-08-19T02:33:55;18.50;99.90
13049;DHT22;6591;51.446;5.404;2022-08-19T02:36:27;20.10;99.90
13049;DHT22;6591;51.446;5.404;2022-08-19T02:38:56;18.50;99.90
13049;DHT22;6591;51.446;5.404;2022-08-19T02:41:27;18.50;99.90
13049;DHT22;6591;51.446;5.404;2022-08-19T02:44:01;19.50;99.90
13049;DHT22;6591;51.446;5.404;2022-08-19T02:46:51;18.50;99.90
13049;DHT22;6591;51.446;5.404;2022-08-19T02:49:18;18.40;99.90
13049;DHT22;6591;51.446;5.404;2022-08-19T02:51:48;20.40;99.90
13049;DHT22;6591;51.446;5.404;2022-08-19T02:54:15;18.40;99.90
13049;DHT22;6591;51.446;5.404;2022-08-19T02:56:43;18.40;99.90
13049;DHT22;6591;51.446;5.404;2022-08-19T02:59:12;20.10;99.90
13049;DHT22;6591;51.446;5.404;2022-08-19T03:01:40;18.40;99.90
13049;DHT22;6591;51.446;5.404;2022-08-19T03:04:11;18.40;99.90
13049;DHT22;6591;51.446;5.404;2022-08-19T03:06:43;18.40;99.90
13049;DHT22;6591;51.446;5.404;2022-08-19T03:09:12;18.30;99.90
13049;DHT22;6591;51.446;5.404;2022-08-19T03:11:41;18.40;99.90
13049;DHT22;6591;51.446;5.404;2022-08-19T03:14:09;18.40;99.90
13049;DHT22;6591;51.446;5.404;2022-08-19T03:16:44;16.80;99.90
13049;DHT22;6591;51.446;5.404;2022-08-19T03:19:15;18.20;99.90
13049;DHT22;6591;51.446;5.404;2022-08-19T03:21:44;19.10;99.90
13049;DHT22;6591;51.446;5.404;2022-08-19T03:24:14;19.80;99.90
13049;DHT22;6591;51.446;5.404;2022-08-19T03:26:49;19.40;99.90
13049;DHT22;6591;51.446;5.404;2022-08-19T03:29:19;16.70;99.90
13049;DHT22;6591;51.446;5.404;2022-08-19T03:32:00;20.80;99.90
13049;DHT22;6591;51.446;5.404;2022-08-19T03:34:32;18.30;99.90
13049;DHT22;6591;51.446;5.404;2022-08-19T03:37:07;18.30;99.90
13049;DHT22;6591;51.446;5.404;2022-08-19T03:39:38;18.30;99.90
13049;DHT22;6591;51.446;5.404;2022-08-19T03:42:07;18.30;99.90
13049;DHT22;6591;51.446;5.404;2022-08-19T03:44:55;18.30;99.90
13049;DHT22;6591;51.446;5.404;2022-08-19T03:47:22;19.50;99.90
13049;DHT22;6591;51.446;5.404;2022-08-19T03:49:49;18.20;99.90
13049;DHT22;6591;51.446;5.404;2022-08-19T03:52:16;18.20;99.90
13049;DHT22;6591;51.446;5.404;2022-08-19T03:54:43;18.50;99.90
13049;DHT22;6591;51.446;5.404;2022-08-19T03:57:11;18.20;99.90
13049;DHT22;6591;51.446;5.404;2022-08-19T03:59:39;18.20;99.90
13049;DHT22;6591;51.446;5.404;2022-08-19T04:02:09;18.20;99.90
13049;DHT22;6591;51.446;5.404;2022-08-19T04:04:39;20.60;99.90
13049;DHT22;6591;51.446;5.404;2022-08-19T04:07:12;18.80;99.90
13049;DHT22;6591;51.446;5.404;2022-08-19T04:09:43;18.10;99.90
13049;DHT22;6591;51.446;5.404;2022-08-19T04:12:11;17.40;99.90
13049;DHT22;6591;51.446;5.404;2022-08-19T04:14:38;18.10;99.90
13049;DHT22;6591;51.446;5.404;2022-08-19T04:17:08;18.00;99.90
13049;DHT22;6591;51.446;5.404;2022-08-19T04:19:35;18.00;99.90
13049;DHT22;6591;51.446;5.404;2022-08-19T04:22:03;18.00;99.90
13049;DHT22;6591;51.446;5.404;2022-08-19T04:24:31;18.10;99.90
13049;DHT22;6591;51.446;5.404;2022-08-19T04:27:00;19.30;99.90
13049;DHT22;6591;51.446;5.404;2022-08-19T04:29:29;17.90;99.90
13049;DHT22;6591;51.446;5.404;2022-08-19T04:31:58;17.90;99.90
13049;DHT22;6591;51.446;5.404;2022-08-19T04:34:35;20.10;99.90
13049;DHT22;6591;51.446;5.404;2022-08-19T04:37:25;17.80;99.90
13049;DHT22;6591;51.446;5.404;2022-08-19T04:40:02;17.80;99.90
13049;DHT22;6591;51.446;5.404;2022-08-19T04:42:49;17.70;99.90
13049;DHT22;6591;51.446;5.404;2022-08-19T04:45:17;16.50;99.90
13049;DHT22;6591;51.446;5.404;2022-08-19T04:47:46;17.60;99.90
13049;DHT22;6591;51.446;5.404;2022-08-19T04:50:25;17.60;99.90
13049;DHT22;6591;51.446;5.404;2022-08-19T04:52:53;20.00;99.90
13049;DHT22;6591;51.446;5.404;2022-08-19T04:55:22;17.60;99.90
13049;DHT22;6591;51.446;5.404;2022-08-19T04:57:53;19.00;99.90
13049;DHT22;6591;51.446;5.404;2022-08-19T05:00:21;18.00;99.90
13049;DHT22;6591;51.446;5.404;2022-08-19T05:02:48;17.60;99.90
13049;DHT22;6591;51.446;5.404;2022-08-19T05:05:16;20.50;99.90
13049;DHT22;6591;51.446;5.404;2022-08-19T05:07:43;18.30;99.90
13049;DHT22;6591;51.446;5.404;2022-08-19T05:10:13;17.60;99.90
13049;DHT22;6591;51.446;5.404;2022-08-19T05:12:40;18.90;99.90
13049;DHT22;6591;51.446;5.404;2022-08-19T05:15:08;17.60;99.90
13049;DHT22;6591;51.446;5.404;2022-08-19T05:17:35;17.60;99.90
13049;DHT22;6591;51.446;5.404;2022-08-19T05:20:06;17.60;99.90
13049;DHT22;6591;51.446;5.404;2022-08-19T05:22:53;17.60;99.90
13049;DHT22;6591;51.446;5.404;2022-08-19T05:25:21;20.00;99.90
13049;DHT22;6591;51.446;5.404;2022-08-19T05:27:49;17.70;99.90
13049;DHT22;6591;51.446;5.404;2022-08-19T05:30:17;17.90;99.90
13049;DHT22;6591;51.446;5.404;2022-08-19T05:32:50;17.70;99.90
13049;DHT22;6591;51.446;5.404;2022-08-19T05:35:20;17.70;99.90
13049;DHT22;6591;51.446;5.404;2022-08-19T05:37:47;17.80;99.90
13049;DHT22;6591;51.446;5.404;2022-08-19T05:40:21;17.80;99.90
13049;DHT22;6591;51.446;5.404;2022-08-19T05:42:52;17.90;99.90
13049;DHT22;6591;51.446;5.404;2022-08-19T05:45:21;17.90;99.90
13049;DHT22;6591;51.446;5.404;2022-08-19T05:47:48;18.00;99.90
13049;DHT22;6591;51.446;5.404;2022-08-19T05:50:15;18.10;99.90
13049;DHT22;6591;51.446;5.404;2022-08-19T05:52:44;18.10;99.90
13049;DHT22;6591;51.446;5.404;2022-08-19T05:55:16;19.70;99.90
13049;DHT22;6591;51.446;5.404;2022-08-19T05:57:43;18.30;99.90
13049;DHT22;6591;51.446;5.404;2022-08-19T06:00:11;19.80;99.90
13049;DHT22;6591;51.446;5.404;2022-08-19T06:02:39;18.40;99.90
13049;DHT22;6591;51.446;5.404;2022-08-19T06:05:08;20.70;99.90
13049;DHT22;6591;51.446;5.404;2022-08-19T06:07:36;18.60;99.90
13049;DHT22;6591;51.446;5.404;2022-08-19T06:10:07;18.60;99.90
13049;DHT22;6591;51.446;5.404;2022-08-19T06:12:37;18.70;99.90
13049;DHT22;6591;51.446;5.404;2022-08-19T06:15:08;18.80;99.90
13049;DHT22;6591;51.446;5.404;2022-08-19T06:17:38;18.90;99.90
13049;DHT22;6591;51.446;5.404;2022-08-19T06:20:09;19.00;99.90
13049;DHT22;6591;51.446;5.404;2022-08-19T06:22:41;19.10;99.90
13049;DHT22;6591;51.446;5.404;2022-08-19T06:25:12;19.30;99.90
13049;DHT22;6591;51.446;5.404;2022-08-19T06:27:41;19.30;99.90
13049;DHT22;6591;51.446;5.404;2022-08-19T06:30:28;21.70;99.90
13049;DHT22;6591;51.446;5.404;2022-08-19T06:32:56;19.50;99.90
13049;DHT22;6591;51.446;5.404;2022-08-19T06:35:23;19.50;99.90
13049;DHT22;6591;51.446;5.404;2022-08-19T06:37:50;19.60;99.90
13049;DHT22;6591;51.446;5.404;2022-08-19T06:40:19;19.70;99.90
13049;DHT22;6591;51.446;5.404;2022-08-19T06:42:46;19.80;99.90
13049;DHT22;6591;51.446;5.404;2022-08-19T06:45:20;19.80;99.90
13049;DHT22;6591;51.446;5.404;2022-08-19T06:47:51;20.70;99.90
13049;DHT22;6591;51.446;5.404;2022-08-19T06:50:23;20.10;99.90
13049;DHT22;6591;51.446;5.404;2022-08-19T06:52:51;20.20;99.90
13049;DHT22;6591;51.446;5.404;2022-08-19T06:55:19;20.30;99.90
13049;DHT22;6591;51.446;5.404;2022-08-19T06:57:47;23.40;99.90
13049;DHT22;6591;51.446;5.404;2022-08-19T07:00:15;20.50;99.90
13049;DHT22;6591;51.446;5.404;2022-08-19T07:02:44;20.60;99.90
13049;DHT22;6591;51.446;5.404;2022-08-19T07:05:21;20.80;99.90
13049;DHT22;6591;51.446;5.404;2022-08-19T07:07:49;20.80;99.90
13049;DHT22;6591;51.446;5.404;2022-08-19T07:10:17;21.10;99.90
13049;DHT22;6591;51.446;5.404;2022-08-19T07:12:45;19.50;99.90
13049;DHT22;6591;51.446;5.404;2022-08-19T07:15:13;21.30;99.90
13049;DHT22;6591;51.446;5.404;2022-08-19T07:17:40;21.40;99.90
13049;DHT22;6591;51.446;5.404;2022-08-19T07:20:08;23.80;99.90
13049;DHT22;6591;51.446;5.404;2022-08-19T07:22:37;21.70;99.90
13049;DHT22;6591;51.446;5.404;2022-08-19T07:25:08;21.80;99.90
13049;DHT22;6591;51.446;5.404;2022-08-19T07:27:36;22.00;99.90
13049;DHT22;6591;51.446;5.404;2022-08-19T07:30:06;24.40;99.90
13049;DHT22;6591;51.446;5.404;2022-08-19T07:32:38;22.20;99.90
13049;DHT22;6591;51.446;5.404;2022-08-19T07:35:06;22.40;99.90
13049;DHT22;6591;51.446;5.404;2022-08-19T07:37:36;22.50;99.90
13049;DHT22;6591;51.446;5.404;2022-08-19T07:40:05;22.60;99.90
13049;DHT22;6591;51.446;5.404;2022-08-19T07:42:34;22.80;99.90
13049;DHT22;6591;51.446;5.404;2022-08-19T07:45:01;23.00;99.90
13049;DHT22;6591;51.446;5.404;2022-08-19T07:47:35;23.00;99.90
13049;DHT22;6591;51.446;5.404;2022-08-19T07:50:18;21.70;99.90
13049;DHT22;6591;51.446;5.404;2022-08-19T07:52:48;23.60;99.90
13049;DHT22;6591;51.446;5.404;2022-08-19T07:55:19;26.10;99.90
13049;DHT22;6591;51.446;5.404;2022-08-19T07:58:36;24.00;99.90
13049;DHT22;6591;51.446;5.404;2022-08-19T08:01:07;24.30;99.90
13049;DHT22;6591;51.446;5.404;2022-08-19T08:03:37;24.40;99.90
13049;DHT22;6591;51.446;5.404;2022-08-19T08:06:23;24.40;99.90
13049;DHT22;6591;51.446;5.404;2022-08-19T08:09:10;26.60;99.90
13049;DHT22;6591;51.446;5.404;2022-08-19T08:11:48;24.60;99.90
13049;DHT22;6591;51.446;5.404;2022-08-19T08:14:32;24.60;99.90
13049;DHT22;6591;51.446;5.404;2022-08-19T08:17:10;24.60;99.90
13049;DHT22;6591;51.446;5.404;2022-08-19T08:24:09;24.60;99.90
13049;DHT22;6591;51.446;5.404;2022-08-19T08:26:38;24.60;99.90
13049;DHT22;6591;51.446;5.404;2022-08-19T08:29:13;26.70;99.90
13049;DHT22;6591;51.446;5.404;2022-08-19T08:31:46;24.50;99.90
13049;DHT22;6591;51.446;5.404;2022-08-19T08:34:24;24.50;99.90
13049;DHT22;6591;51.446;5.404;2022-08-19T08:36:51;24.50;99.90
13049;DHT22;6591;51.446;5.404;2022-08-19T08:39:20;25.50;99.90
13049;DHT22;6591;51.446;5.404;2022-08-19T08:44:53;24.60;99.90
13049;DHT22;6591;51.446;5.404;2022-08-19T08:47:32;24.80;99.90
13049;DHT22;6591;51.446;5.404;2022-08-19T08:50:18;25.90;99.90
13049;DHT22;6591;51.446;5.404;2022-08-19T08:52:53;25.00;99.90
13049;DHT22;6591;51.446;5.404;2022-08-19T08:55:27;25.10;99.90
13049;DHT22;6591;51.446;5.404;2022-08-19T08:58:20;25.20;99.90
13049;DHT22;6591;51.446;5.404;2022-08-19T09:00:55;25.40;99.90
13049;DHT22;6591;51.446;5.404;2022-08-19T09:03:24;25.60;99.90
13049;DHT22;6591;51.446;5.404;2022-08-19T09:06:07;23.90;99.90
13049;DHT22;6591;51.446;5.404;2022-08-19T09:08:48;25.90;99.90
13049;DHT22;6591;51.446;5.404;2022-08-19T09:12:31;26.00;99.90
13049;DHT22;6591;51.446;5.404;2022-08-19T09:14:55;26.10;99.90
13049;DHT22;6591;51.446;5.404;2022-08-19T09:17:30;26.20;99.90
13049;DHT22;6591;51.446;5.404;2022-08-19T09:23:01;26.30;99.90
13049;DHT22;6591;51.446;5.404;2022-08-19T09:25:28;26.40;99.90
13049;DHT22;6591;51.446;5.404;2022-08-19T09:27:57;26.40;99.90
13049;DHT22;6591;51.446;5.404;2022-08-19T09:30:36;25.90;99.90
13049;DHT22;6591;51.446;5.404;2022-08-19T09:33:07;26.70;99.90
13049;DHT22;6591;51.446;5.404;2022-08-19T09:35:34;26.70;99.90
13049;DHT22;6591;51.446;5.404;2022-08-19T09:38:20;26.80;99.80
13049;DHT22;6591;51.446;5.404;2022-08-19T09:40:48;26.80;99.70
13049;DHT22;6591;51.446;5.404;2022-08-19T09:43:17;26.80;99.40
13049;DHT22;6591;51.446;5.404;2022-08-19T09:46:00;26.70;99.10
13049;DHT22;6591;51.446;5.404;2022-08-19T09:48:28;26.70;99.10
13049;DHT22;6591;51.446;5.404;2022-08-19T09:51:06;26.70;99.30
13049;DHT22;6591;51.446;5.404;2022-08-19T09:53:39;26.60;98.90
13049;DHT22;6591;51.446;5.404;2022-08-19T09:56:09;27.20;99.20
13049;DHT22;6591;51.446;5.404;2022-08-19T09:58:38;26.50;99.10
13049;DHT22;6591;51.446;5.404;2022-08-19T10:01:07;26.70;99.10
13049;DHT22;6591;51.446;5.404;2022-08-19T10:03:36;26.70;99.10
13049;DHT22;6591;51.446;5.404;2022-08-19T10:06:04;26.80;99.10
13049;DHT22;6591;51.446;5.404;2022-08-19T10:08:42;25.00;98.30
13049;DHT22;6591;51.446;5.404;2022-08-19T10:11:16;27.00;98.90
13049;DHT22;6591;51.446;5.404;2022-08-19T10:14:03;27.10;98.50
13049;DHT22;6591;51.446;5.404;2022-08-19T10:16:33;27.10;98.40
13049;DHT22;6591;51.446;5.404;2022-08-19T10:19:05;29.20;98.80
13049;DHT22;6591;51.446;5.404;2022-08-19T10:21:33;28.30;98.00
13049;DHT22;6591;51.446;5.404;2022-08-19T10:24:03;27.10;97.50
13049;DHT22;6591;51.446;5.404;2022-08-19T10:26:37;27.00;97.40
13049;DHT22;6591;51.446;5.404;2022-08-19T10:29:08;25.70;96.70
13049;DHT22;6591;51.446;5.404;2022-08-19T10:31:36;26.90;97.40
13049;DHT22;6591;51.446;5.404;2022-08-19T10:34:24;26.90;97.30
13049;DHT22;6591;51.446;5.404;2022-08-19T10:36:54;27.00;97.60
13049;DHT22;6591;51.446;5.404;2022-08-19T10:39:34;27.00;97.70
13049;DHT22;6591;51.446;5.404;2022-08-19T10:42:10;27.00;97.70
13049;DHT22;6591;51.446;5.404;2022-08-19T10:44:38;27.10;97.80
13049;DHT22;6591;51.446;5.404;2022-08-19T10:47:06;27.30;97.60
13049;DHT22;6591;51.446;5.404;2022-08-19T10:49:50;27.40;97.40
13049;DHT22;6591;51.446;5.404;2022-08-19T10:52:39;27.60;97.60
13049;DHT22;6591;51.446;5.404;2022-08-19T10:55:19;27.90;97.40
13049;DHT22;6591;51.446;5.404;2022-08-19T10:58:15;28.10;97.10
13049;DHT22;6591;51.446;5.404;2022-08-19T11:00:54;28.30;96.10
13049;DHT22;6591;51.446;5.404;2022-08-19T11:03:26;28.50;96.00
13049;DHT22;6591;51.446;5.404;2022-08-19T11:06:05;28.70;96.10
13049;DHT22;6591;51.446;5.404;2022-08-19T11:08:35;28.90;95.50
13049;DHT22;6591;51.446;5.404;2022-08-19T11:11:05;29.20;96.00
13049;DHT22;6591;51.446;5.404;2022-08-19T11:13:37;31.50;96.20
13049;DHT22;6591;51.446;5.404;2022-08-19T11:16:12;29.80;94.60
13049;DHT22;6591;51.446;5.404;2022-08-19T11:18:51;30.00;94.60
13049;DHT22;6591;51.446;5.404;2022-08-19T11:21:35;30.30;94.30
13049;DHT22;6591;51.446;5.404;2022-08-19T11:24:08;30.50;93.50
13049;DHT22;6591;51.446;5.404;2022-08-19T11:26:38;30.70;93.40
13049;DHT22;6591;51.446;5.404;2022-08-19T11:29:07;30.90;93.20
13049;DHT22;6591;51.446;5.404;2022-08-19T11:31:45;31.00;93.40
13049;DHT22;6591;51.446;5.404;2022-08-19T11:34:21;31.20;92.20
13049;DHT22;6591;51.446;5.404;2022-08-19T11:36:50;31.20;91.60
13049;DHT22;6591;51.446;5.404;2022-08-19T11:39:21;31.30;91.50
13049;DHT22;6591;51.446;5.404;2022-08-19T11:41:49;31.30;91.00
13049;DHT22;6591;51.446;5.404;2022-08-19T11:44:17;31.30;90.80
13049;DHT22;6591;51.446;5.404;2022-08-19T11:46:45;31.20;90.80
13049;DHT22;6591;51.446;5.404;2022-08-19T11:49:15;31.30;90.70
13049;DHT22;6591;51.446;5.404;2022-08-19T11:51:43;31.40;90.20
13049;DHT22;6591;51.446;5.404;2022-08-19T11:54:11;31.40;89.90
13049;DHT22;6591;51.446;5.404;2022-08-19T11:56:40;31.40;89.90
13049;DHT22;6591;51.446;5.404;2022-08-19T11:59:08;31.10;89.20
13049;DHT22;6591;51.446;5.404;2022-08-19T12:01:40;31.60;87.90
13049;DHT22;6591;51.446;5.404;2022-08-19T12:04:09;31.70;86.90
13049;DHT22;6591;51.446;5.404;2022-08-19T12:06:38;31.50;86.50
13049;DHT22;6591;51.446;5.404;2022-08-19T12:09:08;31.40;87.20
13049;DHT22;6591;51.446;5.404;2022-08-19T12:11:37;31.40;87.90
13049;DHT22;6591;51.446;5.404;2022-08-19T12:14:05;32.00;88.10
13049;DHT22;6591;51.446;5.404;2022-08-19T12:16:33;32.10;87.30
13049;DHT22;6591;51.446;5.404;2022-08-19T12:19:05;31.30;86.50
13049;DHT22;6591;51.446;5.404;2022-08-19T12:21:34;31.10;86.20
13049;DHT22;6591;51.446;5.404;2022-08-19T12:24:04;31.10;86.90
13049;DHT22;6591;51.446;5.404;2022-08-19T12:26:35;31.00;86.90
13049;DHT22;6591;51.446;5.404;2022-08-19T12:29:18;30.90;87.10
13049;DHT22;6591;51.446;5.404;2022-08-19T12:31:50;31.30;87.40
13049;DHT22;6591;51.446;5.404;2022-08-19T12:34:17;32.80;88.70
13049;DHT22;6591;51.446;5.404;2022-08-19T12:36:46;30.60;86.50
13049;DHT22;6591;51.446;5.404;2022-08-19T12:39:16;30.60;86.70
13049;DHT22;6591;51.446;5.404;2022-08-19T12:41:43;31.30;88.80
13049;DHT22;6591;51.446;5.404;2022-08-19T12:44:21;30.40;87.70
13049;DHT22;6591;51.446;5.404;2022-08-19T12:46:58;28.60;87.40
13049;DHT22;6591;51.446;5.404;2022-08-19T12:49:33;30.40;89.00
13049;DHT22;6591;51.446;5.404;2022-08-19T12:52:22;30.50;89.50
13049;DHT22;6591;51.446;5.404;2022-08-19T12:54:52;30.60;89.40
13049;DHT22;6591;51.446;5.404;2022-08-19T12:57:26;30.80;89.30
13049;DHT22;6591;51.446;5.404;2022-08-19T13:00:09;31.10;88.30
13049;DHT22;6591;51.446;5.404;2022-08-19T13:02:41;31.30;87.40
13049;DHT22;6591;51.446;5.404;2022-08-19T13:05:14;31.50;88.20
13049;DHT22;6591;51.446;5.404;2022-08-19T13:07:46;31.70;87.40
13049;DHT22;6591;51.446;5.404;2022-08-19T13:10:15;31.90;87.10
13049;DHT22;6591;51.446;5.404;2022-08-19T13:12:46;32.10;86.00
13049;DHT22;6591;51.446;5.404;2022-08-19T13:15:16;32.10;85.30
13049;DHT22;6591;51.446;5.404;2022-08-19T13:17:51;31.10;83.50
13049;DHT22;6591;51.446;5.404;2022-08-19T13:20:21;32.00;83.50
13049;DHT22;6591;51.446;5.404;2022-08-19T13:22:49;31.90;83.20
13049;DHT22;6591;51.446;5.404;2022-08-19T13:25:17;33.80;85.10
13049;DHT22;6591;51.446;5.404;2022-08-19T13:27:47;31.50;84.10
13049;DHT22;6591;51.446;5.404;2022-08-19T13:30:16;31.50;84.40
13049;DHT22;6591;51.446;5.404;2022-08-19T13:33:05;31.30;84.20
13049;DHT22;6591;51.446;5.404;2022-08-19T13:35:49;31.50;84.20
13049;DHT22;6591;51.446;5.404;2022-08-19T13:38:27;31.50;84.20
13049;DHT22;6591;51.446;5.404;2022-08-19T13:40:55;31.60;83.90
13049;DHT22;6591;51.446;5.404;2022-08-19T13:43:25;31.60;83.80
13049;DHT22;6591;51.446;5.404;2022-08-19T13:45:56;32.90;85.00
13049;DHT22;6591;51.446;5.404;2022-08-19T13:48:26;31.70;85.30
13049;DHT22;6591;51.446;5.404;2022-08-19T13:50:54;31.80;84.40
13049;DHT22;6591;51.446;5.404;2022-08-19T13:53:22;33.60;85.50
13049;DHT22;6591;51.446;5.404;2022-08-19T13:55:50;32.00;82.90
13049;DHT22;6591;51.446;5.404;2022-08-19T13:58:17;32.20;82.40
13049;DHT22;6591;51.446;5.404;2022-08-19T14:00:45;32.20;82.50
13049;DHT22;6591;51.446;5.404;2022-08-19T14:03:13;32.10;81.70
13049;DHT22;6591;51.446;5.404;2022-08-19T14:05:41;32.00;81.70
13049;DHT22;6591;51.446;5.404;2022-08-19T14:08:08;31.90;81.90
13049;DHT22;6591;51.446;5.404;2022-08-19T14:10:35;31.90;81.50
13049;DHT22;6591;51.446;5.404;2022-08-19T14:13:03;31.90;81.20
13049;DHT22;6591;51.446;5.404;2022-08-19T14:15:31;32.00;81.50
13049;DHT22;6591;51.446;5.404;2022-08-19T14:17:59;31.90;81.70
13049;DHT22;6591;51.446;5.404;2022-08-19T14:20:27;33.70;83.20
13049;DHT22;6591;51.446;5.404;2022-08-19T14:22:54;31.80;80.90
13049;DHT22;6591;51.446;5.404;2022-08-19T14:25:25;31.80;80.90
13049;DHT22;6591;51.446;5.404;2022-08-19T14:27:54;30.90;80.30
13049;DHT22;6591;51.446;5.404;2022-08-19T14:30:26;33.70;83.20
13049;DHT22;6591;51.446;5.404;2022-08-19T14:32:58;31.80;81.40
13049;DHT22;6591;51.446;5.404;2022-08-19T14:35:27;31.90;80.60
13049;DHT22;6591;51.446;5.404;2022-08-19T14:37:56;33.70;82.20
13049;DHT22;6591;51.446;5.404;2022-08-19T14:40:29;32.10;81.40
13049;DHT22;6591;51.446;5.404;2022-08-19T14:43:01;32.30;81.30
13049;DHT22;6591;51.446;5.404;2022-08-19T14:45:36;32.50;80.20
13049;DHT22;6591;51.446;5.404;2022-08-19T14:48:07;32.90;79.60
13049;DHT22;6591;51.446;5.404;2022-08-19T14:50:45;32.70;79.00
13049;DHT22;6591;51.446;5.404;2022-08-19T14:53:12;32.80;78.20
13049;DHT22;6591;51.446;5.404;2022-08-19T14:55:43;32.80;78.30
13049;DHT22;6591;51.446;5.404;2022-08-19T14:58:12;32.70;77.20
13049;DHT22;6591;51.446;5.404;2022-08-19T15:00:58;32.60;77.10
13049;DHT22;6591;51.446;5.404;2022-08-19T15:03:28;32.50;78.00
13049;DHT22;6591;51.446;5.404;2022-08-19T15:05:59;32.50;77.20
13049;DHT22;6591;51.446;5.404;2022-08-19T15:08:29;32.50;77.50
13049;DHT22;6591;51.446;5.404;2022-08-19T15:11:01;32.40;77.60
13049;DHT22;6591;51.446;5.404;2022-08-19T15:13:29;32.30;77.40
13049;DHT22;6591;51.446;5.404;2022-08-19T15:15:56;32.30;77.60
13049;DHT22;6591;51.446;5.404;2022-08-19T15:18:26;32.30;77.20
13049;DHT22;6591;51.446;5.404;2022-08-19T15:20:53;32.30;77.10
13049;DHT22;6591;51.446;5.404;2022-08-19T15:23:21;32.30;77.00
13049;DHT22;6591;51.446;5.404;2022-08-19T15:25:49;32.10;76.80
13049;DHT22;6591;51.446;5.404;2022-08-19T15:28:24;32.00;76.90
13049;DHT22;6591;51.446;5.404;2022-08-19T15:30:52;32.00;77.60
13049;DHT22;6591;51.446;5.404;2022-08-19T15:33:20;32.30;77.80
13049;DHT22;6591;51.446;5.404;2022-08-19T15:35:47;32.00;77.50
13049;DHT22;6591;51.446;5.404;2022-08-19T15:38:19;31.90;77.10
13049;DHT22;6591;51.446;5.404;2022-08-19T15:40:52;31.90;77.10
13049;DHT22;6591;51.446;5.404;2022-08-19T15:43:20;30.40;75.50
13049;DHT22;6591;51.446;5.404;2022-08-19T15:45:50;31.70;76.60
13049;DHT22;6591;51.446;5.404;2022-08-19T15:48:17;31.40;76.90
13049;DHT22;6591;51.446;5.404;2022-08-19T15:50:45;31.20;76.80
13049;DHT22;6591;51.446;5.404;2022-08-19T15:53:12;31.20;77.70
13049;DHT22;6591;51.446;5.404;2022-08-19T15:55:44;31.00;77.70
13049;DHT22;6591;51.446;5.404;2022-08-19T15:58:13;30.80;78.10
13049;DHT22;6591;51.446;5.404;2022-08-19T16:01:06;30.80;78.30
13049;DHT22;6591;51.446;5.404;2022-08-19T16:03:54;30.60;78.40
13049;DHT22;6591;51.446;5.404;2022-08-19T16:06:51;30.50;78.30
13049;DHT22;6591;51.446;5.404;2022-08-19T16:09:21;30.40;78.80
13049;DHT22;6591;51.446;5.404;2022-08-19T16:11:58;30.10;79.00
13049;DHT22;6591;51.446;5.404;2022-08-19T16:14:30;31.40;80.50
13049;DHT22;6591;51.446;5.404;2022-08-19T16:17:02;30.00;79.30
13049;DHT22;6591;51.446;5.404;2022-08-19T16:19:30;29.90;79.50
13049;DHT22;6591;51.446;5.404;2022-08-19T16:21:59;31.40;80.80
13049;DHT22;6591;51.446;5.404;2022-08-19T16:24:27;29.60;79.60
13049;DHT22;6591;51.446;5.404;2022-08-19T16:26:55;29.40;82.10